sensor_id;sensor_type;location;lat;lon;timestamp;pressure;altitude;pressure_sealevel;temperature;humidity
32638;BME280;19045;52.268;10.506;2023-04-26T00:02:15;100650.97;;;3.20;93.78
32638;BME280;19045;52.268;10.506;2023-04-26T00:04:42;100663.81;;;3.17;93.86
32638;BME280;19045;52.268;10.506;2023-04-26T00:07:12;100662.59;;;3.12;94.13
32638;BME280;19045;52.268;10.506;2023-04-26T00:09:40;100661.56;;;3.13;94.41
32638;BME280;19045;52.268;10.506;2023-04-26T00:12:08;100664.81;;;3.16;93.95
32638;BME280;19045;52.268;10.506;2023-04-26T00:14:36;100659.53;;;3.16;94.12
32638;BME280;19045;52.268;10.506;2023-04-26T00:17:03;100661.75;;;3.12;94.38
32638;BME280;19045;52.268;10.506;2023-04-26T00:19:30;100658.91;;;3.13;94.05
32638;BME280;19045;52.268;10.506;2023-04-26T00:21:57;100659.94;;;3.19;93.71
32638;BME280;19045;52.268;10.506;2023-04-26T00:24:25;100668.53;;;3.15;93.37
32638;BME280;19045;52.268;10.506;2023-04-26T00:26:53;100661.56;;;3.13;93.40
32638;BME280;19045;52.268;10.506;2023-04-26T00:29:20;100669.72;;;3.05;93.67
32638;BME280;19045;52.268;10.506;2023-04-26T00:31:47;100666.88;;;3.00;94.06
32638;BME280;19045;52.268;10.506;2023-04-26T00:34:14;100662.78;;;2.98;94.99
32638;BME280;19045;52.268;10.506;2023-04-26T00:36:41;100663.19;;;2.95;95.04
32638;BME280;19045;52.268;10.506;2023-04-26T00:39:08;100667.28;;;2.97;94.47
32638;BME280;19045;52.268;10.506;2023-04-26T00:41:36;100665.84;;;2.95;94.64
32638;BME280;19045;52.268;10.506;2023-04-26T00:44:03;100667.44;;;2.89;94.82
32638;BME280;19045;52.268;10.506;2023-04-26T00:46:30;100664.78;;;2.89;94.73
32638;BME280;19045;52.268;10.506;2023-04-26T00:48:57;100660.91;;;2.85;95.40
32638;BME280;19045;52.268;10.506;2023-04-26T00:51:24;100665.19;;;2.86;95.79
32638;BME280;19045;52.268;10.506;2023-04-26T00:53:51;100657.25;;;2.86;95.76
32638;BME280;19045;52.268;10.506;2023-04-26T00:56:18;100658.66;;;2.82;95.56
32638;BME280;19045;52.268;10.506;2023-04-26T00:58:47;100658.03;;;2.80;96.04
32638;BME280;19045;52.268;10.506;2023-04-26T01:01:14;100662.09;;;2.76;96.26
32638;BME280;19045;52.268;10.506;2023-04-26T01:03:41;100661.94;;;2.84;96.19
32638;BME280;19045;52.268;10.506;2023-04-26T01:06:08;100670.88;;;2.77;96.19
32638;BME280;19045;52.268;10.506;2023-04-26T01:08:35;100665.59;;;2.77;96.80
32638;BME280;19045;52.268;10.506;2023-04-26T01:11:03;100670.06;;;2.76;96.86
32638;BME280;19045;52.268;10.506;2023-04-26T01:13:31;100663.91;;;2.69;97.73
32638;BME280;19045;52.268;10.506;2023-04-26T01:15:59;100672.91;;;2.68;97.52
32638;BME280;19045;52.268;10.506;2023-04-26T01:18:27;100670.84;;;2.64;97.73
32638;BME280;19045;52.268;10.506;2023-04-26T01:20:54;100677.97;;;2.63;97.71
32638;BME280;19045;52.268;10.506;2023-04-26T01:23:22;100674.50;;;2.63;97.67
32638;BME280;19045;52.268;10.506;2023-04-26T01:25:50;100675.16;;;2.65;97.37
32638;BME280;19045;52.268;10.506;2023-04-26T01:28:17;100688.81;;;2.68;97.12
32638;BME280;19045;52.268;10.506;2023-04-26T01:30:44;100682.47;;;2.63;97.46
32638;BME280;19045;52.268;10.506;2023-04-26T01:33:11;100687.59;;;2.64;97.38
32638;BME280;19045;52.268;10.506;2023-04-26T01:35:39;100684.94;;;2.64;97.41
32638;BME280;19045;52.268;10.506;2023-04-26T01:38:06;100678.59;;;2.58;97.23
32638;BME280;19045;52.268;10.506;2023-04-26T01:40:34;100683.66;;;2.53;97.41
32638;BME280;19045;52.268;10.506;2023-04-26T01:43:01;100683.25;;;2.50;97.71
32638;BME280;19045;52.268;10.506;2023-04-26T01:45:27;100683.63;;;2.47;97.87
32638;BME280;19045;52.268;10.506;2023-04-26T01:47:55;100680.16;;;2.46;98.29
32638;BME280;19045;52.268;10.506;2023-04-26T01:50:22;100685.06;;;2.49;98.07
32638;BME280;19045;52.268;10.506;2023-04-26T01:52:48;100683.47;;;2.48;98.12
32638;BME280;19045;52.268;10.506;2023-04-26T01:55:16;100679.97;;;2.41;98.82
32638;BME280;19045;52.268;10.506;2023-04-26T01:57:47;100683.06;;;2.51;97.91
32638;BME280;19045;52.268;10.506;2023-04-26T02:00:14;100683.81;;;2.45;98.02
32638;BME280;19045;52.268;10.506;2023-04-26T02:02:41;100688.16;;;2.53;97.42
32638;BME280;19045;52.268;10.506;2023-04-26T02:05:09;100687.53;;;2.51;97.55
32638;BME280;19045;52.268;10.506;2023-04-26T02:07:36;100690.78;;;2.46;97.69
32638;BME280;19045;52.268;10.506;2023-04-26T02:10:04;100689.75;;;2.41;98.89
32638;BME280;19045;52.268;10.506;2023-04-26T02:12:31;100690.78;;;2.46;99.14
32638;BME280;19045;52.268;10.506;2023-04-26T02:15:03;100678.53;;;2.52;98.68
32638;BME280;19045;52.268;10.506;2023-04-26T02:17:30;100691.47;;;2.68;96.34
32638;BME280;19045;52.268;10.506;2023-04-26T02:19:57;100694.31;;;2.67;96.28
32638;BME280;19045;52.268;10.506;2023-04-26T02:22:23;100694.91;;;2.62;96.14
32638;BME280;19045;52.268;10.506;2023-04-26T02:24:50;100681.84;;;2.54;96.49
32638;BME280;19045;52.268;10.506;2023-04-26T02:27:17;100696.75;;;2.55;97.13
32638;BME280;19045;52.268;10.506;2023-04-26T02:29:44;100688.34;;;2.51;96.94
32638;BME280;19045;52.268;10.506;2023-04-26T02:32:13;100686.72;;;2.50;97.30
32638;BME280;19045;52.268;10.506;2023-04-26T02:34:40;100693.63;;;2.45;96.94
32638;BME280;19045;52.268;10.506;2023-04-26T02:37:09;100692.59;;;2.46;97.67
32638;BME280;19045;52.268;10.506;2023-04-26T02:39:36;100691.38;;;2.42;97.56
32638;BME280;19045;52.268;10.506;2023-04-26T02:42:02;100684.63;;;2.39;97.62
32638;BME280;19045;52.268;10.506;2023-04-26T02:44:29;100693.63;;;2.45;97.46
32638;BME280;19045;52.268;10.506;2023-04-26T02:46:56;100685.03;;;2.43;97.83
32638;BME280;19045;52.268;10.506;2023-04-26T02:49:25;100694.81;;;2.42;97.46
32638;BME280;19045;52.268;10.506;2023-04-26T02:51:52;100692.38;;;2.41;97.66
32638;BME280;19045;52.268;10.506;2023-04-26T02:54:18;100687.28;;;2.39;97.79
32638;BME280;19045;52.268;10.506;2023-04-26T02:56:45;100691.97;;;2.37;98.15
32638;BME280;19045;52.268;10.506;2023-04-26T02:59:12;100687.88;;;2.35;98.30
32638;BME280;19045;52.268;10.506;2023-04-26T03:01:38;100686.25;;;2.34;98.37
32638;BME280;19045;52.268;10.506;2023-04-26T03:04:05;100685.41;;;2.33;98.68
32638;BME280;19045;52.268;10.506;2023-04-26T03:06:34;100688.47;;;2.30;97.90
32638;BME280;19045;52.268;10.506;2023-04-26T03:09:01;100682.16;;;2.31;98.23
32638;BME280;19045;52.268;10.506;2023-04-26T03:11:29;100691.72;;;2.32;98.21
32638;BME280;19045;52.268;10.506;2023-04-26T03:13:56;100692.31;;;2.28;98.52
32638;BME280;19045;52.268;10.506;2023-04-26T03:16:26;100693.34;;;2.27;98.28
32638;BME280;19045;52.268;10.506;2023-04-26T03:18:53;100690.47;;;2.22;98.80
32638;BME280;19045;52.268;10.506;2023-04-26T03:21:20;100694.34;;;2.26;98.86
32638;BME280;19045;52.268;10.506;2023-04-26T03:23:49;100692.09;;;2.23;99.01
32638;BME280;19045;52.268;10.506;2023-04-26T03:26:16;100689.81;;;2.20;98.81
32638;BME280;19045;52.268;10.506;2023-04-26T03:28:42;100682.28;;;2.17;99.06
32638;BME280;19045;52.268;10.506;2023-04-26T03:31:09;100678.41;;;2.19;99.36
32638;BME280;19045;52.268;10.506;2023-04-26T03:33:36;100684.91;;;2.17;99.32
32638;BME280;19045;52.268;10.506;2023-04-26T03:36:03;100683.28;;;2.16;99.45
32638;BME280;19045;52.268;10.506;2023-04-26T03:38:29;100685.16;;;2.22;99.41
32638;BME280;19045;52.268;10.506;2023-04-26T03:41:00;100684.94;;;2.23;99.32
32638;BME280;19045;52.268;10.506;2023-04-26T03:43:26;100684.91;;;2.17;99.24
32638;BME280;19045;52.268;10.506;2023-04-26T03:45:53;100686.34;;;2.19;99.34
32638;BME280;19045;52.268;10.506;2023-04-26T03:48:20;100688.19;;;2.12;99.88
32638;BME280;19045;52.268;10.506;2023-04-26T03:50:47;100691.22;;;2.16;100.00
32638;BME280;19045;52.268;10.506;2023-04-26T03:53:14;100690.69;;;2.27;99.00
32638;BME280;19045;52.268;10.506;2023-04-26T03:55:40;100689.69;;;2.28;98.59
32638;BME280;19045;52.268;10.506;2023-04-26T03:58:08;100691.25;;;2.22;98.74
32638;BME280;19045;52.268;10.506;2023-04-26T04:00:36;100691.91;;;2.24;99.14
32638;BME280;19045;52.268;10.506;2023-04-26T04:03:02;100693.50;;;2.19;99.20
32638;BME280;19045;52.268;10.506;2023-04-26T04:05:32;100698.00;;;2.18;99.08
32638;BME280;19045;52.268;10.506;2023-04-26T04:07:59;100692.47;;;2.20;99.64
32638;BME280;19045;52.268;10.506;2023-04-26T04:10:26;100692.47;;;2.20;99.26
32638;BME280;19045;52.268;10.506;2023-04-26T04:12:52;100694.31;;;2.19;99.64
32638;BME280;19045;52.268;10.506;2023-04-26T04:15:20;100700.25;;;2.21;99.27
32638;BME280;19045;52.268;10.506;2023-04-26T04:17:47;100698.44;;;2.28;98.79
32638;BME280;19045;52.268;10.506;2023-04-26T04:20:14;100696.22;;;2.32;98.80
32638;BME280;19045;52.268;10.506;2023-04-26T04:22:41;100699.31;;;2.35;98.75
32638;BME280;19045;52.268;10.506;2023-04-26T04:25:08;100706.44;;;2.35;98.88
32638;BME280;19045;52.268;10.506;2023-04-26T04:27:36;100699.34;;;2.42;98.39
32638;BME280;19045;52.268;10.506;2023-04-26T04:30:04;100704.84;;;2.47;98.34
32638;BME280;19045;52.268;10.506;2023-04-26T04:32:33;100711.59;;;2.49;98.38
32638;BME280;19045;52.268;10.506;2023-04-26T04:35:00;100715.72;;;2.58;98.50
32638;BME280;19045;52.268;10.506;2023-04-26T04:37:27;100714.72;;;2.66;97.86
32638;BME280;19045;52.268;10.506;2023-04-26T04:39:53;100718.44;;;2.72;97.11
32638;BME280;19045;52.268;10.506;2023-04-26T04:42:20;100718.19;;;2.67;97.58
32638;BME280;19045;52.268;10.506;2023-04-26T04:44:47;100715.78;;;2.72;97.08
32638;BME280;19045;52.268;10.506;2023-04-26T04:47:15;100712.50;;;2.76;97.23
32638;BME280;19045;52.268;10.506;2023-04-26T04:49:43;100723.50;;;2.73;96.89
32638;BME280;19045;52.268;10.506;2023-04-26T04:52:10;100721.88;;;2.79;96.91
32638;BME280;19045;52.268;10.506;2023-04-26T04:54:38;100731.94;;;2.90;97.89
32638;BME280;19045;52.268;10.506;2023-04-26T04:57:05;100720.34;;;3.04;96.01
32638;BME280;19045;52.268;10.506;2023-04-26T04:59:31;100721.75;;;2.93;96.04
32638;BME280;19045;52.268;10.506;2023-04-26T05:01:58;100724.81;;;2.90;96.42
32638;BME280;19045;52.268;10.506;2023-04-26T05:04:25;100725.81;;;2.89;97.10
32638;BME280;19045;52.268;10.506;2023-04-26T05:06:53;100726.84;;;2.88;97.45
32638;BME280;19045;52.268;10.506;2023-04-26T05:09:20;100720.50;;;2.89;97.14
32638;BME280;19045;52.268;10.506;2023-04-26T05:11:47;100714.00;;;2.98;97.49
32638;BME280;19045;52.268;10.506;2023-04-26T05:14:14;100725.25;;;3.00;96.49
32638;BME280;19045;52.268;10.506;2023-04-26T05:16:40;100713.25;;;3.18;98.66
32638;BME280;19045;52.268;10.506;2023-04-26T05:19:07;100720.41;;;3.83;100.00
32638;BME280;19045;52.268;10.506;2023-04-26T05:21:34;100720.81;;;3.86;96.07
32638;BME280;19045;52.268;10.506;2023-04-26T05:24:02;100728.19;;;3.84;93.59
32638;BME280;19045;52.268;10.506;2023-04-26T05:26:29;100729.19;;;3.90;92.31
32638;BME280;19045;52.268;10.506;2023-04-26T05:28:56;100731.03;;;3.70;91.83
32638;BME280;19045;52.268;10.506;2023-04-26T05:31:22;100735.13;;;3.59;92.72
32638;BME280;19045;52.268;10.506;2023-04-26T05:33:49;100735.75;;;3.41;94.05
32638;BME280;19045;52.268;10.506;2023-04-26T05:36:16;100731.03;;;3.37;94.70
32638;BME280;19045;52.268;10.506;2023-04-26T05:38:43;100737.34;;;3.49;97.11
32638;BME280;19045;52.268;10.506;2023-04-26T05:41:11;100744.50;;;3.68;96.03
32638;BME280;19045;52.268;10.506;2023-04-26T05:43:38;100752.28;;;3.83;95.70
32638;BME280;19045;52.268;10.506;2023-04-26T05:46:04;100743.31;;;3.84;93.32
32638;BME280;19045;52.268;10.506;2023-04-26T05:48:31;100736.94;;;4.04;93.49
32638;BME280;19045;52.268;10.506;2023-04-26T05:50:58;100750.22;;;3.91;92.09
32638;BME280;19045;52.268;10.506;2023-04-26T05:53:24;100749.63;;;3.70;92.36
32638;BME280;19045;52.268;10.506;2023-04-26T05:55:51;100757.41;;;3.84;92.22
32638;BME280;19045;52.268;10.506;2023-04-26T05:58:19;100748.19;;;4.06;91.50
32638;BME280;19045;52.268;10.506;2023-04-26T06:00:46;100755.91;;;4.28;90.73
32638;BME280;19045;52.268;10.506;2023-04-26T06:03:12;100750.59;;;4.21;90.53
32638;BME280;19045;52.268;10.506;2023-04-26T06:05:39;100757.34;;;4.37;90.73
32638;BME280;19045;52.268;10.506;2023-04-26T06:08:06;100763.59;;;4.62;90.05
32638;BME280;19045;52.268;10.506;2023-04-26T06:10:34;100759.16;;;5.00;89.17
32638;BME280;19045;52.268;10.506;2023-04-26T06:13:00;100753.03;;;5.62;87.99
32638;BME280;19045;52.268;10.506;2023-04-26T06:15:28;100757.97;;;5.84;82.51
32638;BME280;19045;52.268;10.506;2023-04-26T06:17:57;100759.16;;;5.94;82.26
32638;BME280;19045;52.268;10.506;2023-04-26T06:20:24;100767.00;;;5.83;81.96
32638;BME280;19045;52.268;10.506;2023-04-26T06:22:52;100758.66;;;6.04;81.00
32638;BME280;19045;52.268;10.506;2023-04-26T06:25:18;100754.09;;;6.47;79.84
32638;BME280;19045;52.268;10.506;2023-04-26T06:27:45;100761.72;;;6.26;80.02
32638;BME280;19045;52.268;10.506;2023-04-26T06:30:14;100761.97;;;5.99;81.23
32638;BME280;19045;52.268;10.506;2023-04-26T06:32:43;100763.03;;;5.36;83.14
32638;BME280;19045;52.268;10.506;2023-04-26T06:35:10;100767.03;;;5.20;84.37
32638;BME280;19045;52.268;10.506;2023-04-26T06:37:37;100770.41;;;5.34;83.83
32638;BME280;19045;52.268;10.506;2023-04-26T06:40:04;100762.69;;;5.26;83.44
32638;BME280;19045;52.268;10.506;2023-04-26T06:42:31;100766.50;;;5.43;82.98
32638;BME280;19045;52.268;10.506;2023-04-26T06:44:58;100770.16;;;5.73;82.43
32638;BME280;19045;52.268;10.506;2023-04-26T06:47:24;100771.22;;;6.21;80.29
32638;BME280;19045;52.268;10.506;2023-04-26T06:49:52;100767.16;;;6.37;80.04
32638;BME280;19045;52.268;10.506;2023-04-26T06:52:19;100765.22;;;6.81;78.59
32638;BME280;19045;52.268;10.506;2023-04-26T06:54:46;100767.31;;;6.79;75.97
32638;BME280;19045;52.268;10.506;2023-04-26T06:57:12;100762.56;;;6.62;76.23
32638;BME280;19045;52.268;10.506;2023-04-26T06:59:39;100771.25;;;6.76;76.46
32638;BME280;19045;52.268;10.506;2023-04-26T07:02:05;100768.97;;;7.09;75.77
32638;BME280;19045;52.268;10.506;2023-04-26T07:04:32;100774.28;;;7.27;74.72
32638;BME280;19045;52.268;10.506;2023-04-26T07:07:00;100772.06;;;7.24;75.28
32638;BME280;19045;52.268;10.506;2023-04-26T07:09:27;100763.25;;;7.77;73.62
32638;BME280;19045;52.268;10.506;2023-04-26T07:11:53;100769.19;;;7.91;70.96
32638;BME280;19045;52.268;10.506;2023-04-26T07:14:20;100773.13;;;7.05;75.08
32638;BME280;19045;52.268;10.506;2023-04-26T07:16:47;100773.50;;;7.09;74.87
32638;BME280;19045;52.268;10.506;2023-04-26T07:19:13;100773.75;;;6.89;75.57
32638;BME280;19045;52.268;10.506;2023-04-26T07:21:40;100775.25;;;7.45;74.74
32638;BME280;19045;52.268;10.506;2023-04-26T07:24:08;100771.53;;;7.16;74.44
32638;BME280;19045;52.268;10.506;2023-04-26T07:26:35;100773.50;;;7.39;74.79
32638;BME280;19045;52.268;10.506;2023-04-26T07:29:02;100773.00;;;7.71;72.33
32638;BME280;19045;52.268;10.506;2023-04-26T07:31:29;100777.34;;;8.19;71.55
32638;BME280;19045;52.268;10.506;2023-04-26T07:33:56;100781.19;;;8.23;70.44
32638;BME280;19045;52.268;10.506;2023-04-26T07:36:22;100782.84;;;7.59;72.41
32638;BME280;19045;52.268;10.506;2023-04-26T07:38:49;100777.19;;;7.79;72.40
32638;BME280;19045;52.268;10.506;2023-04-26T07:41:20;100785.81;;;7.93;71.72
32638;BME280;19045;52.268;10.506;2023-04-26T07:43:46;100781.75;;;8.83;67.31
32638;BME280;19045;52.268;10.506;2023-04-26T07:46:13;100782.09;;;9.15;64.14
32638;BME280;19045;52.268;10.506;2023-04-26T07:48:40;100778.28;;;9.84;61.97
32638;BME280;19045;52.268;10.506;2023-04-26T07:51:06;100778.28;;;10.34;60.41
32638;BME280;19045;52.268;10.506;2023-04-26T07:53:34;100777.88;;;10.64;57.88
32638;BME280;19045;52.268;10.506;2023-04-26T07:56:03;100775.88;;;10.76;57.86
32638;BME280;19045;52.268;10.506;2023-04-26T07:58:31;100773.19;;;10.04;59.37
32638;BME280;19045;52.268;10.506;2023-04-26T08:00:58;100768.31;;;10.34;58.80
32638;BME280;19045;52.268;10.506;2023-04-26T08:03:24;100773.53;;;9.74;60.78
32638;BME280;19045;52.268;10.506;2023-04-26T08:05:51;100781.03;;;9.89;61.06
32638;BME280;19045;52.268;10.506;2023-04-26T08:08:19;100774.00;;;10.05;59.23
32638;BME280;19045;52.268;10.506;2023-04-26T08:10:46;100778.41;;;10.27;58.90
32638;BME280;19045;52.268;10.506;2023-04-26T08:13:12;100774.22;;;11.18;56.48
32638;BME280;19045;52.268;10.506;2023-04-26T08:15:40;100776.78;;;11.30;55.19
32638;BME280;19045;52.268;10.506;2023-04-26T08:18:07;100783.44;;;11.01;55.30
32638;BME280;19045;52.268;10.506;2023-04-26T08:20:34;100785.53;;;10.55;54.67
32638;BME280;19045;52.268;10.506;2023-04-26T08:23:00;100780.94;;;9.67;58.27
32638;BME280;19045;52.268;10.506;2023-04-26T08:25:27;100785.53;;;9.55;58.71
32638;BME280;19045;52.268;10.506;2023-04-26T08:27:54;100779.84;;;9.52;56.74
32638;BME280;19045;52.268;10.506;2023-04-26T08:30:21;100774.44;;;10.13;55.93
32638;BME280;19045;52.268;10.506;2023-04-26T08:32:49;100781.75;;;10.01;55.57
32638;BME280;19045;52.268;10.506;2023-04-26T08:35:16;100781.28;;;9.71;55.41
32638;BME280;19045;52.268;10.506;2023-04-26T08:37:42;100777.34;;;10.45;54.22
32638;BME280;19045;52.268;10.506;2023-04-26T08:40:09;100789.16;;;10.27;54.34
32638;BME280;19045;52.268;10.506;2023-04-26T08:42:38;100782.41;;;10.25;54.11
32638;BME280;19045;52.268;10.506;2023-04-26T08:45:07;100780.16;;;10.33;54.35
32638;BME280;19045;52.268;10.506;2023-04-26T08:47:39;100778.28;;;11.21;51.45
32638;BME280;19045;52.268;10.506;2023-04-26T08:50:10;100780.34;;;11.35;50.06
32638;BME280;19045;52.268;10.506;2023-04-26T08:52:40;100771.91;;;10.40;52.61
32638;BME280;19045;52.268;10.506;2023-04-26T08:55:07;100778.84;;;10.19;53.06
32638;BME280;19045;52.268;10.506;2023-04-26T08:57:35;100775.66;;;10.61;51.77
32638;BME280;19045;52.268;10.506;2023-04-26T09:00:02;100780.19;;;9.88;51.48
32638;BME280;19045;52.268;10.506;2023-04-26T09:02:34;100776.94;;;10.53;51.24
32638;BME280;19045;52.268;10.506;2023-04-26T09:05:01;100786.50;;;11.09;49.29
32638;BME280;19045;52.268;10.506;2023-04-26T09:07:31;100771.63;;;10.80;48.65
32638;BME280;19045;52.268;10.506;2023-04-26T09:09:59;100774.84;;;11.25;48.35
32638;BME280;19045;52.268;10.506;2023-04-26T09:12:26;100778.34;;;11.04;48.45
32638;BME280;19045;52.268;10.506;2023-04-26T09:14:53;100785.75;;;10.92;48.83
32638;BME280;19045;52.268;10.506;2023-04-26T09:17:24;100779.13;;;10.78;49.27
32638;BME280;19045;52.268;10.506;2023-04-26T09:19:51;100784.50;;;10.56;51.37
32638;BME280;19045;52.268;10.506;2023-04-26T09:22:27;100785.34;;;9.90;52.85
32638;BME280;19045;52.268;10.506;2023-04-26T09:24:55;100787.25;;;9.78;52.78
32638;BME280;19045;52.268;10.506;2023-04-26T09:27:31;100791.19;;;9.87;52.79
32638;BME280;19045;52.268;10.506;2023-04-26T09:30:02;100788.72;;;10.52;51.02
32638;BME280;19045;52.268;10.506;2023-04-26T09:32:43;100774.41;;;14.49;43.93
32638;BME280;19045;52.268;10.506;2023-04-26T09:35:21;100777.66;;;13.50;43.29
32638;BME280;19045;52.268;10.506;2023-04-26T09:37:51;100771.94;;;13.21;44.51
32638;BME280;19045;52.268;10.506;2023-04-26T09:40:19;100776.44;;;12.54;45.37
32638;BME280;19045;52.268;10.506;2023-04-26T09:42:55;100789.06;;;10.39;47.71
32638;BME280;19045;52.268;10.506;2023-04-26T09:45:22;100786.88;;;9.69;50.26
32638;BME280;19045;52.268;10.506;2023-04-26T09:47:51;100797.59;;;9.24;52.72
32638;BME280;19045;52.268;10.506;2023-04-26T09:50:30;100785.19;;;9.52;52.38
32638;BME280;19045;52.268;10.506;2023-04-26T09:52:58;100793.94;;;9.30;53.00
32638;BME280;19045;52.268;10.506;2023-04-26T09:55:27;100777.91;;;9.47;53.17
32638;BME280;19045;52.268;10.506;2023-04-26T09:58:06;100790.72;;;10.62;50.15
32638;BME280;19045;52.268;10.506;2023-04-26T10:00:42;100788.03;;;9.45;52.74
32638;BME280;19045;52.268;10.506;2023-04-26T10:03:11;100796.91;;;8.66;55.10
32638;BME280;19045;52.268;10.506;2023-04-26T10:05:38;100802.56;;;8.93;55.01
32638;BME280;19045;52.268;10.506;2023-04-26T10:08:06;100800.41;;;9.18;53.81
32638;BME280;19045;52.268;10.506;2023-04-26T10:10:36;100802.69;;;9.26;52.45
32638;BME280;19045;52.268;10.506;2023-04-26T10:13:04;100798.09;;;9.10;53.39
32638;BME280;19045;52.268;10.506;2023-04-26T10:15:31;100792.03;;;9.14;53.77
32638;BME280;19045;52.268;10.506;2023-04-26T10:17:58;100794.84;;;9.08;52.81
32638;BME280;19045;52.268;10.506;2023-04-26T10:20:27;100800.75;;;9.66;52.84
32638;BME280;19045;52.268;10.506;2023-04-26T10:22:56;100787.63;;;10.70;49.60
32638;BME280;19045;52.268;10.506;2023-04-26T10:25:35;100781.34;;;11.29;47.30
32638;BME280;19045;52.268;10.506;2023-04-26T10:28:02;100790.63;;;10.02;49.26
32638;BME280;19045;52.268;10.506;2023-04-26T10:30:30;100780.31;;;9.49;50.55
32638;BME280;19045;52.268;10.506;2023-04-26T10:33:12;100788.25;;;10.05;50.19
32638;BME280;19045;52.268;10.506;2023-04-26T10:36:10;100786.91;;;10.19;49.01
32638;BME280;19045;52.268;10.506;2023-04-26T10:38:39;100786.94;;;9.91;48.50
32638;BME280;19045;52.268;10.506;2023-04-26T10:41:35;100778.44;;;9.04;49.59
32638;BME280;19045;52.268;10.506;2023-04-26T10:44:37;100787.56;;;8.80;50.95
32638;BME280;19045;52.268;10.506;2023-04-26T10:47:05;100784.84;;;8.92;51.21
32638;BME280;19045;52.268;10.506;2023-04-26T10:49:43;100789.22;;;9.09;50.34
32638;BME280;19045;52.268;10.506;2023-04-26T10:52:12;100788.47;;;9.25;50.77
32638;BME280;19045;52.268;10.506;2023-04-26T10:54:48;100787.00;;;9.63;48.63
32638;BME280;19045;52.268;10.506;2023-04-26T10:57:17;100780.75;;;10.79;47.05
32638;BME280;19045;52.268;10.506;2023-04-26T11:00:18;100786.56;;;11.95;44.37
32638;BME280;19045;52.268;10.506;2023-04-26T11:02:53;100780.34;;;11.89;44.36
32638;BME280;19045;52.268;10.506;2023-04-26T11:05:32;100775.47;;;10.67;45.14
32638;BME280;19045;52.268;10.506;2023-04-26T11:08:04;100786.00;;;10.30;46.41
32638;BME280;19045;52.268;10.506;2023-04-26T11:10:36;100789.16;;;10.27;46.33
32638;BME280;19045;52.268;10.506;2023-04-26T11:13:04;100782.50;;;10.13;46.16
32638;BME280;19045;52.268;10.506;2023-04-26T11:15:31;100785.66;;;10.10;46.85
32638;BME280;19045;52.268;10.506;2023-04-26T11:18:01;100786.34;;;10.17;47.84
32638;BME280;19045;52.268;10.506;2023-04-26T11:20:29;100784.59;;;10.28;47.55
32638;BME280;19045;52.268;10.506;2023-04-26T11:22:56;100783.22;;;10.09;47.15
32638;BME280;19045;52.268;10.506;2023-04-26T11:25:24;100788.66;;;9.64;48.14
32638;BME280;19045;52.268;10.506;2023-04-26T11:27:52;100779.97;;;9.45;48.06
32638;BME280;19045;52.268;10.506;2023-04-26T11:30:23;100782.13;;;9.60;48.56
32638;BME280;19045;52.268;10.506;2023-04-26T11:32:49;100787.84;;;9.35;48.60
32638;BME280;19045;52.268;10.506;2023-04-26T11:35:16;100795.81;;;9.30;49.00
32638;BME280;19045;52.268;10.506;2023-04-26T11:37:44;100790.00;;;9.21;49.79
32638;BME280;19045;52.268;10.506;2023-04-26T11:40:11;100797.78;;;9.34;49.97
32638;BME280;19045;52.268;10.506;2023-04-26T11:42:38;100794.22;;;9.17;50.39
32638;BME280;19045;52.268;10.506;2023-04-26T11:45:07;100794.38;;;9.11;49.60
32638;BME280;19045;52.268;10.506;2023-04-26T11:47:35;100792.66;;;9.33;49.29
32638;BME280;19045;52.268;10.506;2023-04-26T11:50:03;100791.22;;;9.59;49.32
32638;BME280;19045;52.268;10.506;2023-04-26T11:52:30;100795.34;;;10.28;47.76
32638;BME280;19045;52.268;10.506;2023-04-26T11:55:00;100789.31;;;11.19;45.30
32638;BME280;19045;52.268;10.506;2023-04-26T11:57:30;100777.31;;;12.17;43.19
32638;BME280;19045;52.268;10.506;2023-04-26T12:00:07;100785.94;;;12.66;43.71
32638;BME280;19045;52.268;10.506;2023-04-26T12:02:37;100774.00;;;12.99;41.69
32638;BME280;19045;52.268;10.506;2023-04-26T12:05:04;100775.75;;;13.35;41.19
32638;BME280;19045;52.268;10.506;2023-04-26T12:07:33;100784.69;;;13.66;40.52
32638;BME280;19045;52.268;10.506;2023-04-26T12:10:16;100782.75;;;14.68;39.18
32638;BME280;19045;52.268;10.506;2023-04-26T12:12:46;100781.91;;;14.77;38.42
32638;BME280;19045;52.268;10.506;2023-04-26T12:15:13;100789.25;;;13.40;39.77
32638;BME280;19045;52.268;10.506;2023-04-26T12:17:50;100783.16;;;12.46;42.60
32638;BME280;19045;52.268;10.506;2023-04-26T12:20:18;100795.00;;;11.23;44.38
32638;BME280;19045;52.268;10.506;2023-04-26T12:22:59;100790.91;;;11.42;44.25
32638;BME280;19045;52.268;10.506;2023-04-26T12:25:26;100787.44;;;11.20;43.47
32638;BME280;19045;52.268;10.506;2023-04-26T12:27:53;100786.63;;;11.46;42.99
32638;BME280;19045;52.268;10.506;2023-04-26T12:30:20;100796.13;;;11.80;42.25
32638;BME280;19045;52.268;10.506;2023-04-26T12:32:51;100785.69;;;12.21;40.98
32638;BME280;19045;52.268;10.506;2023-04-26T12:35:18;100780.38;;;12.31;40.59
32638;BME280;19045;52.268;10.506;2023-04-26T12:37:44;100777.13;;;12.29;41.96
32638;BME280;19045;52.268;10.506;2023-04-26T12:40:12;100781.75;;;13.78;40.04
32638;BME280;19045;52.268;10.506;2023-04-26T12:42:40;100773.09;;;15.06;38.06
32638;BME280;19045;52.268;10.506;2023-04-26T12:45:07;100784.19;;;15.14;36.64
32638;BME280;19045;52.268;10.506;2023-04-26T12:47:34;100779.47;;;14.66;36.82
32638;BME280;19045;52.268;10.506;2023-04-26T12:50:02;100781.47;;;13.84;37.64
32638;BME280;19045;52.268;10.506;2023-04-26T12:52:30;100785.38;;;13.11;39.38
32638;BME280;19045;52.268;10.506;2023-04-26T12:54:56;100778.00;;;12.91;41.07